createdAt,value
2023-04-16T00:01:14.125Z,95028.25
2023-04-16T00:03:42.228Z,95034.89
2023-04-16T00:06:11.611Z,95037.66
2023-04-16T00:08:41.105Z,95042.38
2023-04-16T00:11:09.284Z,95034.18
2023-04-16T00:13:37.356Z,95035.89
2023-04-16T00:16:05.429Z,95038.66
2023-04-16T00:18:33.491Z,95041.84
2023-04-16T00:21:01.343Z,95045.16
2023-04-16T00:23:29.326Z,95051.77
2023-04-16T00:26:00.004Z,95052.11
2023-04-16T00:28:28.331Z,95055.60
2023-04-16T00:30:56.278Z,95054.89
2023-04-16T00:33:24.345Z,95057.58
2023-04-16T00:35:52.529Z,95056.98
2023-04-16T00:38:20.908Z,95055.42
2023-04-16T00:40:48.808Z,95054.70
2023-04-16T00:43:24.950Z,95052.77
2023-04-16T00:45:53.655Z,95046.45
2023-04-16T00:48:21.620Z,95050.52
2023-04-16T00:50:49.538Z,95053.89
2023-04-16T00:53:17.430Z,95050.86
2023-04-16T00:55:46.038Z,95050.44
2023-04-16T00:58:14.121Z,95052.76
2023-04-16T01:00:42.726Z,95051.36
2023-04-16T01:03:11.402Z,95047.49
2023-04-16T01:05:39.715Z,95047.70
2023-04-16T01:08:14.964Z,95050.05
2023-04-16T01:10:42.932Z,95051.14
2023-04-16T01:13:11.211Z,95052.24
2023-04-16T01:15:39.391Z,95049.99
2023-04-16T01:18:16.967Z,95051.36
2023-04-16T01:20:45.821Z,95050.45
2023-04-16T01:23:13.773Z,95047.44
2023-04-16T01:25:41.784Z,95046.80
2023-04-16T01:28:10.111Z,95044.24
2023-04-16T01:30:38.216Z,95049.94
2023-04-16T01:33:14.099Z,95051.59
2023-04-16T01:35:42.114Z,95050.61
2023-04-16T01:38:10.898Z,95053.07
2023-04-16T01:40:38.893Z,95052.20
2023-04-16T01:43:06.788Z,95049.24
2023-04-16T01:45:35.377Z,95047.45
2023-04-16T01:48:03.877Z,95046.65
2023-04-16T01:50:31.991Z,95047.27
2023-04-16T01:53:02.107Z,95047.96
2023-04-16T01:55:29.990Z,95049.09
2023-04-16T01:57:58.088Z,95049.84
2023-04-16T02:00:27.885Z,95054.23
2023-04-16T02:02:56.113Z,95053.59
2023-04-16T02:05:27.020Z,95058.05
2023-04-16T02:07:55.034Z,95059.07
2023-04-16T02:10:23.560Z,95054.36
2023-04-16T02:12:51.936Z,95054.96
2023-04-16T02:15:20.470Z,95058.44
2023-04-16T02:17:51.160Z,95058.64
2023-04-16T02:20:19.450Z,95053.81
2023-04-16T02:22:52.197Z,95051.84
2023-04-16T02:25:22.476Z,95052.64
2023-04-16T02:27:51.082Z,95051.64
2023-04-16T02:30:31.319Z,95050.48
2023-04-16T02:32:59.475Z,95050.45
2023-04-16T02:35:28.086Z,95045.46
2023-04-16T02:37:56.019Z,95046.27
2023-04-16T02:40:24.006Z,95046.01
2023-04-16T02:42:52.050Z,95043.39
2023-04-16T02:45:21.038Z,95041.88
2023-04-16T02:47:49.299Z,95038.20
2023-04-16T02:50:17.798Z,95037.33
2023-04-16T02:52:45.853Z,95039.96
2023-04-16T02:55:13.825Z,95040.86
2023-04-16T02:57:42.668Z,95043.75
2023-04-16T03:00:10.946Z,95042.69
2023-04-16T03:02:39.129Z,95046.83
2023-04-16T03:05:07.298Z,95046.99
2023-04-16T03:07:35.500Z,95045.16
2023-04-16T03:10:03.821Z,95048.67
2023-04-16T03:12:31.786Z,95051.57
2023-04-16T03:14:59.745Z,95050.83
2023-04-16T03:17:27.616Z,95057.65
2023-04-16T03:19:55.658Z,95060.11
2023-04-16T03:22:23.654Z,95056.56
2023-04-16T03:24:51.667Z,95059.80
2023-04-16T03:27:19.619Z,95066.94
2023-04-16T03:29:47.861Z,95066.30
2023-04-16T03:32:16.289Z,95071.17
2023-04-16T03:34:44.566Z,95068.53
2023-04-16T03:37:12.608Z,95070.02
2023-04-16T03:39:40.965Z,95074.77
2023-04-16T03:42:10.334Z,95076.25
2023-04-16T03:44:38.456Z,95076.95
2023-04-16T03:47:06.430Z,95076.73
2023-04-16T03:49:34.430Z,95071.55
2023-04-16T03:52:02.946Z,95067.20
2023-04-16T03:54:30.997Z,95066.71
2023-04-16T03:57:07.731Z,95079.34
2023-04-16T03:59:35.990Z,95083.04
2023-04-16T04:02:04.214Z,95091.36
2023-04-16T04:04:33.232Z,95094.31
2023-04-16T04:07:01.294Z,95094.27
2023-04-16T04:09:29.249Z,95093.57
2023-04-16T04:11:57.261Z,95102.08
2023-04-16T04:14:25.342Z,95104.50
2023-04-16T04:16:53.312Z,95098.02
2023-04-16T04:19:21.353Z,95096.67
2023-04-16T04:21:49.520Z,95096.10
2023-04-16T04:24:18.208Z,95100.15
2023-04-16T04:26:46.363Z,95102.08
2023-04-16T04:29:14.459Z,95105.83
2023-04-16T04:31:42.435Z,95102.80
2023-04-16T04:34:11.282Z,95100.73
2023-04-16T04:36:39.365Z,95101.22
2023-04-16T04:39:07.524Z,95103.69
2023-04-16T04:41:36.301Z,95113.06
2023-04-16T04:44:05.173Z,95110.02
2023-04-16T04:46:33.123Z,95109.71
2023-04-16T04:49:01.014Z,95107.75
2023-04-16T04:51:28.910Z,95110.17
2023-04-16T04:53:58.302Z,95107.13
2023-04-16T04:56:26.343Z,95111.95
2023-04-16T04:58:56.224Z,95116.80
2023-04-16T05:01:24.182Z,95118.54
2023-04-16T05:03:52.114Z,95122.25
2023-04-16T05:06:20.146Z,95122.44
2023-04-16T05:08:48.118Z,95114.73
2023-04-16T05:11:16.022Z,95112.14
2023-04-16T05:13:43.999Z,95112.66
2023-04-16T05:16:11.886Z,95112.42
2023-04-16T05:18:39.753Z,95105.07
2023-04-16T05:21:07.684Z,95107.25
2023-04-16T05:23:35.607Z,95102.64
2023-04-16T05:26:03.564Z,95103.20
2023-04-16T05:28:31.509Z,95103.29
2023-04-16T05:30:59.481Z,95100.34
2023-04-16T05:33:27.678Z,95099.42
2023-04-16T05:35:55.600Z,95099.46
2023-04-16T05:38:23.814Z,95094.66
2023-04-16T05:40:51.819Z,95095.25
2023-04-16T05:43:19.716Z,95091.71
2023-04-16T05:45:47.646Z,95096.19
2023-04-16T05:48:15.540Z,95097.91
2023-04-16T05:50:43.705Z,95103.10
2023-04-16T05:53:14.228Z,95106.41
2023-04-16T05:55:42.276Z,95107.62
2023-04-16T05:58:10.315Z,95104.95
2023-04-16T06:00:38.264Z,95106.92
2023-04-16T06:03:06.274Z,95105.98
2023-04-16T06:05:34.992Z,95107.33
2023-04-16T06:08:03.026Z,95103.20
2023-04-16T06:10:31.512Z,95103.98
2023-04-16T06:12:59.478Z,95101.55
2023-04-16T06:15:27.372Z,95096.89
2023-04-16T06:17:56.313Z,95093.20
2023-04-16T06:20:24.291Z,95097.26
2023-04-16T06:22:52.251Z,95094.75
2023-04-16T06:25:20.224Z,95092.66
2023-04-16T06:27:48.223Z,95098.03
2023-04-16T06:30:16.450Z,95100.98
2023-04-16T06:32:44.548Z,95102.66
2023-04-16T06:35:12.810Z,95100.91
2023-04-16T06:37:41.352Z,95103.04
2023-04-16T06:40:09.543Z,95097.64
2023-04-16T06:42:37.487Z,95104.91
2023-04-16T06:45:05.962Z,95110.96
2023-04-16T06:47:33.844Z,95115.02
2023-04-16T06:50:01.922Z,95117.60
2023-04-16T06:52:30.027Z,95118.98
2023-04-16T06:54:57.957Z,95117.33
2023-04-16T06:57:25.866Z,95115.77
2023-04-16T06:59:53.724Z,95114.23
2023-04-16T07:02:21.734Z,95110.04
2023-04-16T07:04:49.837Z,95114.23
2023-04-16T07:07:17.830Z,95114.59
2023-04-16T07:09:45.806Z,95109.65
2023-04-16T07:12:13.792Z,95107.30
2023-04-16T07:14:41.885Z,95106.27
2023-04-16T07:17:09.854Z,95104.48
2023-04-16T07:19:37.859Z,95104.77
2023-04-16T07:22:05.922Z,95101.73
2023-04-16T07:24:33.909Z,95097.75
2023-04-16T07:27:01.865Z,95100.81
2023-04-16T07:29:29.726Z,95100.50
2023-04-16T07:31:58.065Z,95100.55
2023-04-16T07:34:26.094Z,95101.14
2023-04-16T07:36:53.953Z,95102.29
2023-04-16T07:39:21.806Z,95092.13
2023-04-16T07:41:49.821Z,95090.16
2023-04-16T07:44:17.747Z,95089.45
2023-04-16T07:46:47.245Z,95088.91
2023-04-16T07:49:15.703Z,95091.51
2023-04-16T07:51:44.021Z,95083.81
2023-04-16T07:54:11.937Z,95084.07
2023-04-16T07:56:40.229Z,95081.48
2023-04-16T07:59:21.952Z,95084.64
2023-04-16T08:01:52.681Z,95080.91
2023-04-16T08:04:25.007Z,95080.58
2023-04-16T08:06:54.428Z,95075.59
2023-04-16T08:09:23.337Z,95072.67
2023-04-16T08:11:51.464Z,95073.23
2023-04-16T08:14:19.482Z,95071.84
2023-04-16T08:16:47.549Z,95069.47
2023-04-16T08:19:15.476Z,95062.58
2023-04-16T08:21:43.727Z,95066.80
2023-04-16T08:24:12.028Z,95065.03
2023-04-16T08:26:40.103Z,95067.16
2023-04-16T08:29:08.157Z,95065.02
2023-04-16T08:31:36.313Z,95066.89
2023-04-16T08:34:04.198Z,95064.75
2023-04-16T08:36:32.124Z,95066.88
2023-04-16T08:38:59.995Z,95064.52
2023-04-16T08:41:31.125Z,95062.85
2023-04-16T08:44:00.477Z,95064.39
2023-04-16T08:46:29.116Z,95062.36
2023-04-16T08:48:59.250Z,95064.30
2023-04-16T08:51:30.059Z,95064.59
2023-04-16T08:54:05.125Z,95061.97
2023-04-16T08:56:35.621Z,95068.69
2023-04-16T08:59:05.780Z,95068.56
2023-04-16T09:01:34.594Z,95065.04
2023-04-16T09:04:04.125Z,95058.14
2023-04-16T09:06:33.261Z,95053.32
2023-04-16T09:09:05.103Z,95053.61
2023-04-16T09:11:34.645Z,95048.51
2023-04-16T09:14:03.284Z,95049.52
2023-04-16T09:16:34.164Z,95047.14
2023-04-16T09:19:02.126Z,95051.20
2023-04-16T09:21:30.059Z,95051.23
2023-04-16T09:23:58.542Z,95052.51
2023-04-16T09:26:27.470Z,95052.68
2023-04-16T09:28:55.413Z,95054.34
2023-04-16T09:31:23.510Z,95055.14
2023-04-16T09:34:02.633Z,95053.71
2023-04-16T09:36:31.614Z,95052.66
2023-04-16T09:38:59.939Z,95052.77
2023-04-16T09:41:32.172Z,95057.83
2023-04-16T09:44:02.054Z,95056.21
2023-04-16T09:46:30.305Z,95056.73
2023-04-16T09:48:58.500Z,95058.41
2023-04-16T09:51:27.041Z,95055.47
2023-04-16T09:53:57.045Z,95052.48
2023-04-16T09:56:27.939Z,95047.29
2023-04-16T09:59:02.357Z,95043.93
2023-04-16T10:01:31.036Z,95047.37
2023-04-16T10:04:01.117Z,95046.70
2023-04-16T10:06:29.314Z,95043.34
2023-04-16T10:08:57.345Z,95037.80
2023-04-16T10:11:26.128Z,95040.27
2023-04-16T10:13:54.055Z,95043.94
2023-04-16T10:16:23.040Z,95041.33
2023-04-16T10:18:51.007Z,95037.66
2023-04-16T10:21:19.404Z,95036.14
2023-04-16T10:23:49.806Z,95039.27
2023-04-16T10:26:18.296Z,95036.19
2023-04-16T10:28:46.292Z,95029.61
2023-04-16T10:31:14.487Z,95034.52
2023-04-16T10:33:42.879Z,95030.13
2023-04-16T10:36:11.931Z,95031.27
2023-04-16T10:38:41.222Z,95027.45
2023-04-16T10:41:09.725Z,95024.27
2023-04-16T10:43:48.059Z,95031.17
2023-04-16T10:46:18.960Z,95033.23
2023-04-16T10:48:50.439Z,95029.73
2023-04-16T10:51:26.339Z,95029.77
2023-04-16T10:53:55.305Z,95026.73
2023-04-16T10:56:24.023Z,95024.77
2023-04-16T10:58:53.331Z,95023.79
2023-04-16T11:01:29.226Z,95020.17
2023-04-16T11:03:58.748Z,95019.42
2023-04-16T11:06:27.818Z,95022.67
2023-04-16T11:08:55.810Z,95021.00
2023-04-16T11:11:23.960Z,95023.11
2023-04-16T11:13:55.183Z,95020.80
2023-04-16T11:16:24.765Z,95016.48
2023-04-16T11:18:54.473Z,95016.00
2023-04-16T11:21:24.535Z,95008.93
2023-04-16T11:23:53.517Z,95006.91
2023-04-16T11:26:23.466Z,95007.59
2023-04-16T11:28:51.979Z,95008.30
2023-04-16T11:31:20.127Z,95010.84
2023-04-16T11:33:48.151Z,95007.49
2023-04-16T11:36:16.347Z,95003.73
2023-04-16T11:38:47.705Z,95003.52
2023-04-16T11:41:22.122Z,95002.19
2023-04-16T11:43:50.186Z,94998.98
2023-04-16T11:46:27.333Z,94997.67
2023-04-16T11:48:56.265Z,94998.88
2023-04-16T11:51:24.440Z,94994.77
2023-04-16T11:53:54.065Z,94987.88
2023-04-16T11:56:29.454Z,94988.95
2023-04-16T11:59:17.680Z,94983.45
2023-04-16T12:01:47.161Z,94984.86
2023-04-16T12:04:16.722Z,94981.71
2023-04-16T12:07:08.189Z,94977.80
2023-04-16T12:09:39.534Z,94979.86
2023-04-16T12:12:27.538Z,94980.30
2023-04-16T12:14:57.000Z,94977.63
2023-04-16T12:17:25.696Z,94974.66
2023-04-16T12:19:58.155Z,94972.55
2023-04-16T12:22:30.199Z,94966.70
2023-04-16T12:24:58.947Z,94962.86
2023-04-16T12:27:28.789Z,94962.10
2023-04-16T12:30:07.428Z,94963.25
2023-04-16T12:32:35.567Z,94956.44
2023-04-16T12:35:04.068Z,94958.98
2023-04-16T12:37:32.239Z,94950.59
2023-04-16T12:40:00.136Z,94949.33
2023-04-16T12:42:28.186Z,94943.64
2023-04-16T12:44:56.069Z,94940.63
2023-04-16T12:47:23.946Z,94934.23
2023-04-16T12:49:51.969Z,94939.63
2023-04-16T12:52:20.801Z,94938.21
2023-04-16T12:54:50.302Z,94931.52
2023-04-16T12:57:18.265Z,94928.69
2023-04-16T12:59:47.209Z,94928.36
2023-04-16T13:02:15.296Z,94924.41
2023-04-16T13:04:43.409Z,94922.95
2023-04-16T13:07:11.584Z,94926.32
2023-04-16T13:09:40.062Z,94926.14
2023-04-16T13:12:08.134Z,94927.94
2023-04-16T13:14:36.085Z,94923.34
2023-04-16T13:17:04.179Z,94920.64
2023-04-16T13:19:32.132Z,94921.18
2023-04-16T13:22:00.169Z,94918.77
2023-04-16T13:24:28.120Z,94918.27
2023-04-16T13:26:56.560Z,94918.60
2023-04-16T13:29:24.536Z,94917.91
2023-04-16T13:31:52.592Z,94918.04
2023-04-16T13:34:20.991Z,94924.05
2023-04-16T13:36:48.979Z,94917.58
2023-04-16T13:39:17.696Z,94914.38
2023-04-16T13:41:46.120Z,94912.38
2023-04-16T13:44:14.054Z,94908.83
2023-04-16T13:46:43.846Z,94902.23
2023-04-16T13:49:12.047Z,94903.34
2023-04-16T13:51:40.177Z,94901.33
2023-04-16T13:54:08.146Z,94900.98
2023-04-16T13:56:36.400Z,94901.30
2023-04-16T13:59:04.414Z,94901.81
2023-04-16T14:01:32.375Z,94900.25
2023-04-16T14:04:06.091Z,94900.93
2023-04-16T14:06:34.789Z,94896.01
2023-04-16T14:09:02.932Z,94893.48
2023-04-16T14:11:31.314Z,94896.08
2023-04-16T14:13:59.600Z,94895.77
2023-04-16T14:16:27.884Z,94896.61
2023-04-16T14:18:56.668Z,94896.86
2023-04-16T14:21:24.570Z,94896.51
2023-04-16T14:23:52.926Z,94892.81
2023-04-16T14:26:21.162Z,94897.55
2023-04-16T14:28:49.076Z,94902.13
2023-04-16T14:31:18.367Z,94904.43
2023-04-16T14:33:46.979Z,94901.34
2023-04-16T14:36:15.099Z,94903.39
2023-04-16T14:38:43.498Z,94902.09
2023-04-16T14:41:12.690Z,94903.22
2023-04-16T14:43:41.509Z,94906.70
2023-04-16T14:46:09.946Z,94905.77
2023-04-16T14:48:38.040Z,94905.64
2023-04-16T14:51:07.329Z,94907.36
2023-04-16T14:53:36.675Z,94914.23
2023-04-16T14:56:05.161Z,94918.89
2023-04-16T14:58:33.065Z,94919.59
2023-04-16T15:01:01.101Z,94923.79
2023-04-16T15:03:30.048Z,94924.55
2023-04-16T15:05:58.460Z,94919.83
2023-04-16T15:08:27.167Z,94921.20
2023-04-16T15:10:55.150Z,94926.55
2023-04-16T15:13:23.007Z,94933.09
2023-04-16T15:15:50.999Z,94935.18
2023-04-16T15:18:19.065Z,94937.42
2023-04-16T15:20:46.961Z,94936.81
2023-04-16T15:23:14.886Z,94936.80
2023-04-16T15:25:42.799Z,94939.67
2023-04-16T15:28:10.907Z,94941.55
2023-04-16T15:30:40.542Z,94943.52
2023-04-16T15:33:08.909Z,94944.70
2023-04-16T15:35:39.073Z,94951.05
2023-04-16T15:38:07.571Z,94954.27
2023-04-16T15:40:36.561Z,94959.25
2023-04-16T15:43:05.885Z,94954.92
2023-04-16T15:45:33.864Z,94957.77
2023-04-16T15:48:01.874Z,94954.81
2023-04-16T15:50:29.750Z,94956.05
2023-04-16T15:52:57.824Z,94955.02
2023-04-16T15:55:26.572Z,94953.50
2023-04-16T15:57:54.562Z,94950.55
2023-04-16T16:00:22.523Z,94950.30
2023-04-16T16:02:50.810Z,94952.55
2023-04-16T16:05:18.945Z,94951.02
2023-04-16T16:07:47.090Z,94951.98
2023-04-16T16:10:15.024Z,94953.80
2023-04-16T16:12:42.963Z,94957.70
2023-04-16T16:15:11.190Z,94960.09
2023-04-16T16:17:40.690Z,94959.80
2023-04-16T16:20:10.685Z,94960.61
2023-04-16T16:22:39.499Z,94961.89
2023-04-16T16:25:07.567Z,94966.10
2023-04-16T16:27:36.421Z,94964.09
2023-04-16T16:30:06.687Z,94967.42
2023-04-16T16:32:35.001Z,94972.27
2023-04-16T16:35:03.407Z,94974.48
2023-04-16T16:37:31.278Z,94975.32
2023-04-16T16:39:59.215Z,94976.77
2023-04-16T16:42:27.345Z,94976.68
2023-04-16T16:44:57.341Z,94982.15
2023-04-16T16:47:25.712Z,94983.51
2023-04-16T16:49:54.971Z,94984.35
2023-04-16T16:52:24.023Z,94993.90
2023-04-16T16:54:56.799Z,94992.29
2023-04-16T16:57:25.142Z,94996.89
2023-04-16T16:59:54.571Z,94993.95
2023-04-16T17:02:23.310Z,94995.11
2023-04-16T17:04:52.868Z,94991.99
2023-04-16T17:07:20.999Z,94986.86
2023-04-16T17:09:48.948Z,94989.42
2023-04-16T17:12:16.920Z,94985.39
2023-04-16T17:14:44.907Z,94988.95
2023-04-16T17:17:12.777Z,94985.45
2023-04-16T17:19:40.724Z,94982.90
2023-04-16T17:22:08.710Z,94983.86
2023-04-16T17:24:36.852Z,94984.80
2023-04-16T17:27:04.814Z,94984.42
2023-04-16T17:29:32.768Z,94987.89
2023-04-16T17:32:01.051Z,94988.98
2023-04-16T17:34:28.960Z,94988.63
2023-04-16T17:36:56.803Z,94990.31
2023-04-16T17:39:25.215Z,94989.68
2023-04-16T17:41:57.398Z,94986.90
2023-04-16T17:44:27.529Z,94988.91
2023-04-16T17:46:55.523Z,94991.46
2023-04-16T17:49:23.531Z,94991.57
2023-04-16T17:51:52.834Z,94995.98
2023-04-16T17:54:20.714Z,95000.15
2023-04-16T17:56:48.771Z,94997.84
2023-04-16T17:59:16.754Z,95001.59
2023-04-16T18:01:45.055Z,95007.64
2023-04-16T18:04:13.595Z,95011.69
2023-04-16T18:06:42.028Z,95011.95
2023-04-16T18:09:09.986Z,95010.48
2023-04-16T18:11:38.179Z,95008.84
2023-04-16T18:14:06.419Z,95009.11
2023-04-16T18:16:34.454Z,95009.90
2023-04-16T18:19:05.602Z,95017.48
2023-04-16T18:21:34.081Z,95019.58
2023-04-16T18:24:03.615Z,95024.77
2023-04-16T18:26:35.648Z,95027.46
2023-04-16T18:29:04.185Z,95029.40
2023-04-16T18:31:32.278Z,95030.40
2023-04-16T18:34:00.387Z,95029.65
2023-04-16T18:36:28.436Z,95033.27
2023-04-16T18:39:02.285Z,95039.54
2023-04-16T18:41:31.352Z,95042.20
2023-04-16T18:43:59.487Z,95048.50
2023-04-16T18:46:27.713Z,95053.11
2023-04-16T18:48:59.121Z,95050.70
2023-04-16T18:51:27.477Z,95051.20
2023-04-16T18:53:55.443Z,95050.92
2023-04-16T18:56:23.383Z,95049.57
2023-04-16T18:58:51.378Z,95048.14
2023-04-16T19:01:19.323Z,95048.02
2023-04-16T19:03:47.488Z,95046.96
2023-04-16T19:06:15.518Z,95046.30
2023-04-16T19:08:43.498Z,95044.84
2023-04-16T19:11:11.402Z,95044.92
2023-04-16T19:13:39.375Z,95046.22
2023-04-16T19:16:11.410Z,95046.36
2023-04-16T19:18:39.732Z,95045.59
2023-04-16T19:21:08.014Z,95049.14
2023-04-16T19:23:36.528Z,95048.27
2023-04-16T19:26:04.632Z,95045.77
2023-04-16T19:28:32.601Z,95045.20
2023-04-16T19:31:00.486Z,95046.50
2023-04-16T19:33:28.501Z,95049.77
2023-04-16T19:35:56.389Z,95048.17
2023-04-16T19:38:24.649Z,95048.34
2023-04-16T19:40:52.925Z,95043.67
2023-04-16T19:43:21.467Z,95044.14
2023-04-16T19:45:53.671Z,95039.52
2023-04-16T19:48:21.968Z,95040.00
2023-04-16T19:50:49.973Z,95039.58
2023-04-16T19:53:18.075Z,95041.10
2023-04-16T19:55:46.238Z,95039.47
2023-04-16T19:58:14.811Z,95040.24
2023-04-16T20:00:43.437Z,95037.39
2023-04-16T20:03:11.892Z,95035.56
2023-04-16T20:05:39.855Z,95031.14
2023-04-16T20:08:07.858Z,95027.64
2023-04-16T20:10:36.163Z,95022.63
2023-04-16T20:13:05.036Z,95027.34
2023-04-16T20:15:33.065Z,95027.76
2023-04-16T20:18:01.009Z,95021.35
2023-04-16T20:20:29.199Z,95022.65
2023-04-16T20:22:57.245Z,95022.30
2023-04-16T20:25:26.246Z,95022.70
2023-04-16T20:27:54.297Z,95026.80
2023-04-16T20:30:24.553Z,95023.84
2023-04-16T20:32:52.469Z,95025.58
2023-04-16T20:35:20.524Z,95025.45
2023-04-16T20:37:48.688Z,95027.61
2023-04-16T20:40:16.651Z,95023.54
2023-04-16T20:42:47.510Z,95022.87
2023-04-16T20:45:15.605Z,95026.60
2023-04-16T20:47:43.733Z,95022.74
2023-04-16T20:50:12.272Z,95023.45
2023-04-16T20:52:40.221Z,95025.34
2023-04-16T20:55:08.576Z,95027.48
2023-04-16T20:57:36.458Z,95026.90
2023-04-16T21:00:06.623Z,95027.90
2023-04-16T21:02:34.777Z,95022.65
2023-04-16T21:05:03.287Z,95017.65
2023-04-16T21:07:31.559Z,95018.20
2023-04-16T21:10:01.253Z,95020.41
2023-04-16T21:12:29.208Z,95020.23
2023-04-16T21:14:57.553Z,95021.81
2023-04-16T21:17:25.488Z,95022.53
2023-04-16T21:19:53.412Z,95023.89
2023-04-16T21:22:21.343Z,95023.15
2023-04-16T21:24:49.346Z,95021.05
2023-04-16T21:27:17.657Z,95023.25
2023-04-16T21:29:45.686Z,95022.99
2023-04-16T21:32:13.690Z,95022.11
2023-04-16T21:34:41.607Z,95025.52
2023-04-16T21:37:10.464Z,95025.09
2023-04-16T21:39:38.455Z,95025.94
2023-04-16T21:42:06.451Z,95029.39
2023-04-16T21:44:34.363Z,95027.94
2023-04-16T21:47:02.420Z,95025.71
2023-04-16T21:49:30.512Z,95026.03
2023-04-16T21:51:59.296Z,95025.85
2023-04-16T21:54:27.548Z,95023.91
2023-04-16T21:56:55.482Z,95020.48
2023-04-16T21:59:23.493Z,95018.72
2023-04-16T22:01:51.595Z,95011.28
2023-04-16T22:04:26.369Z,95013.89
2023-04-16T22:06:56.491Z,95015.84
2023-04-16T22:09:27.455Z,95018.05
2023-04-16T22:11:57.814Z,95021.44
2023-04-16T22:14:25.897Z,95021.98
2023-04-16T22:16:54.192Z,95022.77
2023-04-16T22:19:22.392Z,95019.66
2023-04-16T22:21:50.392Z,95024.13
2023-04-16T22:24:18.448Z,95026.77
2023-04-16T22:26:46.490Z,95028.42
2023-04-16T22:29:14.448Z,95026.59
2023-04-16T22:31:42.372Z,95027.96
2023-04-16T22:34:10.403Z,95026.90
2023-04-16T22:36:38.335Z,95022.55
2023-04-16T22:39:08.716Z,95018.95
2023-04-16T22:41:36.793Z,95021.48
2023-04-16T22:44:04.757Z,95018.50
2023-04-16T22:46:32.842Z,95016.64
2023-04-16T22:49:00.890Z,95016.70
2023-04-16T22:51:29.463Z,95016.86
2023-04-16T22:53:57.358Z,95017.98
2023-04-16T22:56:28.734Z,95017.46
2023-04-16T22:58:57.068Z,95018.30
2023-04-16T23:01:25.386Z,95018.20
2023-04-16T23:03:53.482Z,95015.73
2023-04-16T23:06:22.149Z,95013.30
2023-04-16T23:08:50.154Z,95011.27
2023-04-16T23:11:18.039Z,95008.05
2023-04-16T23:13:45.978Z,95008.08
2023-04-16T23:16:13.930Z,95008.92
2023-04-16T23:18:42.210Z,95005.25
2023-04-16T23:21:10.110Z,95002.84
2023-04-16T23:23:37.977Z,95003.01
2023-04-16T23:26:05.920Z,95001.16
2023-04-16T23:28:33.926Z,94999.67
2023-04-16T23:31:02.636Z,94999.43
2023-04-16T23:33:31.763Z,94998.32
2023-04-16T23:35:59.741Z,94997.50
2023-04-16T23:38:27.705Z,94997.85
2023-04-16T23:40:55.752Z,94993.51
2023-04-16T23:43:23.647Z,94994.20
2023-04-16T23:45:51.564Z,94992.23
2023-04-16T23:48:19.522Z,94991.08
2023-04-16T23:50:47.535Z,94990.25
2023-04-16T23:53:15.829Z,94991.17
2023-04-16T23:55:43.716Z,94988.65
2023-04-16T23:58:11.660Z,94986.96
